Time;durP1;ratioP1;P1;durP2;ratioP2;P2;SDS_P1;SDS_P2;PMS_P1;PMS_P2;Temp;Humidity;BMP_temperature;BMP_pressure;BME280_temperature;BME280_humidity;BME280_pressure;Samples;Min_cycle;Max_cycle;Signal;HPM_P1;HPM_P2
2023/08/25 00:05:06;;;;;;;16.80;12.38;;;;;;;25.28;100.00;100683.78;20971654;28;20040;-72
2023/08/25 00:15:28;;;;;;;13.70;11.30;;;;;;;25.04;100.00;100678.63;20948095;28;20063;-72
2023/08/25 00:25:54;;;;;;;14.43;11.88;;;;;;;25.25;100.00;100672.25;20948502;28;20435;-72
2023/08/25 00:36:17;;;;;;;14.57;11.00;;;;;;;24.87;100.00;100658.66;20960065;28;20102;-73
2023/08/25 00:46:41;;;;;;;16.15;11.80;;;;;;;24.64;100.00;100661.47;20964147;28;20514;-72
2023/08/25 00:57:05;;;;;;;15.07;12.52;;;;;;;24.77;100.00;100643.78;20947960;28;20045;-73
2023/08/25 01:07:30;;;;;;;13.82;10.55;;;;;;;24.78;100.00;100632.03;20954042;28;20507;-72
2023/08/25 01:17:59;;;;;;;12.98;10.38;;;;;;;24.80;100.00;100637.38;20947544;28;20056;-72
2023/08/25 01:28:23;;;;;;;12.20;9.50;;;;;;;24.63;100.00;100643.53;20967530;28;20053;-72
2023/08/25 01:38:53;;;;;;;15.35;10.77;;;;;;;24.75;100.00;100631.28;20939208;28;20048;-72
2023/08/25 01:49:18;;;;;;;17.15;11.18;;;;;;;24.71;100.00;100635.09;20943012;28;20047;-72
2023/08/25 01:59:43;;;;;;;14.67;10.43;;;;;;;24.55;100.00;100630.34;20946002;28;20067;-72
2023/08/25 02:10:08;;;;;;;13.63;9.93;;;;;;;24.59;100.00;100621.19;20943430;28;20076;-72
2023/08/25 02:20:31;;;;;;;13.68;10.60;;;;;;;24.58;100.00;100638.34;20951995;28;20063;-73
2023/08/25 02:30:55;;;;;;;14.63;10.88;;;;;;;24.40;100.00;100641.84;20939143;28;20720;-72
2023/08/25 02:41:18;;;;;;;13.32;11.30;;;;;;;24.26;100.00;100643.38;20925534;28;20040;-72
2023/08/25 02:51:42;;;;;;;14.68;10.90;;;;;;;24.21;100.00;100641.75;20931892;28;20496;-73
2023/08/25 03:02:04;;;;;;;14.43;10.68;;;;;;;24.04;100.00;100648.75;20958087;28;20044;-72
2023/08/25 03:12:28;;;;;;;15.60;11.60;;;;;;;23.96;100.00;100643.66;20960422;28;20056;-73
2023/08/25 03:22:52;;;;;;;13.70;11.38;;;;;;;23.84;100.00;100654.97;20972892;28;20048;-72
2023/08/25 03:33:16;;;;;;;14.70;12.50;;;;;;;23.74;100.00;100659.88;20952704;28;20044;-72
2023/08/25 03:43:40;;;;;;;13.48;12.07;;;;;;;23.73;100.00;100650.03;20968464;28;20056;-72
2023/08/25 03:54:06;;;;;;;16.63;11.75;;;;;;;23.72;100.00;100659.03;20950260;28;20548;-72
2023/08/25 04:04:31;;;;;;;14.98;11.50;;;;;;;23.78;100.00;100661.50;20953991;28;20413;-72
2023/08/25 04:14:56;;;;;;;14.45;10.43;;;;;;;24.19;100.00;100684.09;20960729;28;20763;-72
2023/08/25 04:25:19;;;;;;;16.15;10.13;;;;;;;24.58;100.00;100683.34;20937661;28;20509;-72
2023/08/25 04:35:43;;;;;;;16.88;10.00;;;;;;;24.96;100.00;100682.56;20930255;28;20056;-73
2023/08/25 04:46:07;;;;;;;15.23;8.80;;;;;;;25.46;100.00;100683.91;20952492;28;20595;-73
2023/08/25 04:56:33;;;;;;;14.07;7.90;;;;;;;26.24;100.00;100689.13;20954380;28;20090;-72
2023/08/25 05:06:56;;;;;;;12.00;7.65;;;;;;;26.89;100.00;100681.22;20952025;28;20059;-73
2023/08/25 05:17:23;;;;;;;9.07;6.78;;;;;;;27.96;100.00;100691.59;20954730;28;20047;-73
2023/08/25 05:27:46;;;;;;;10.57;7.27;;;;;;;29.06;100.00;100694.09;20944510;28;20049;-73
2023/08/25 05:38:11;;;;;;;12.90;6.82;;;;;;;30.03;100.00;100696.88;20944314;28;20067;-72
2023/08/25 05:48:34;;;;;;;11.63;6.65;;;;;;;31.10;90.58;100689.59;20930316;28;20041;-73
2023/08/25 05:59:00;;;;;;;10.02;6.20;;;;;;;31.75;65.28;100689.44;20939492;28;20040;-73
2023/08/25 06:09:23;;;;;;;10.35;6.93;;;;;;;32.26;59.25;100692.88;20979999;28;20052;-73
2023/08/25 06:19:47;;;;;;;9.70;6.43;;;;;;;32.68;57.79;100700.56;20937799;28;20056;-73
2023/08/25 06:30:11;;;;;;;10.13;6.03;;;;;;;33.23;55.48;100704.44;20957160;28;20139;-73
2023/08/25 06:40:37;;;;;;;9.68;5.25;;;;;;;33.79;51.28;100719.06;20955384;28;20043;-73
2023/08/25 06:50:59;;;;;;;8.93;5.78;;;;;;;34.21;48.09;100713.75;20966676;28;20044;-74
2023/08/25 07:01:24;;;;;;;11.13;6.03;;;;;;;34.53;45.46;100728.38;20969716;28;20090;-74
2023/08/25 07:11:47;;;;;;;9.98;6.00;;;;;;;34.91;43.46;100716.03;20959090;28;20076;-73
2023/08/25 07:22:11;;;;;;;12.75;5.82;;;;;;;35.22;42.21;100712.38;20973613;28;20122;-74
2023/08/25 07:32:33;;;;;;;7.43;5.28;;;;;;;35.38;41.52;100712.72;20957302;28;20044;-74
2023/08/25 07:43:02;;;;;;;7.75;5.18;;;;;;;35.62;40.12;100712.44;20941473;28;20052;-74
2023/08/25 07:53:24;;;;;;;12.40;5.70;;;;;;;35.90;39.40;100725.44;20952392;28;20052;-74
2023/08/25 08:03:48;;;;;;;7.60;4.93;;;;;;;36.16;38.21;100730.44;20957159;28;20401;-74
2023/08/25 08:14:10;;;;;;;;;;;;;;;36.48;37.52;100732.97;20966779;28;20037;-74
2023/08/25 08:24:36;;;;;;;7.30;5.07;;;;;;;36.80;36.42;100721.72;20965856;28;19920;-74
2023/08/25 08:34:58;;;;;;;10.73;4.97;;;;;;;37.15;37.21;100724.75;20959615;28;20167;-73
2023/08/25 08:45:25;;;;;;;9.13;4.90;;;;;;;36.91;36.83;100719.66;20943903;28;20440;-75
2023/08/25 08:55:51;;;;;;;8.32;5.13;;;;;;;37.25;37.34;100721.97;20966530;28;20054;-74
2023/08/25 09:06:15;;;;;;;7.60;5.38;;;;;;;37.46;36.81;100711.59;20962168;28;20106;-74
2023/08/25 09:16:38;;;;;;;7.55;5.10;;;;;;;37.56;36.08;100720.69;20934466;28;20389;-74
2023/08/25 09:27:02;;;;;;;9.68;5.55;;;;;;;37.88;35.26;100728.56;20957700;28;20520;-74
2023/08/25 09:37:40;;;;;;;7.18;5.03;;;;;;;38.11;33.96;100713.38;20960364;28;20041;-74
2023/08/25 09:48:12;;;;;;;10.70;5.57;;;;;;;38.19;33.26;100707.09;20956776;28;20057;-74
2023/08/25 09:58:35;;;;;;;8.10;4.70;;;;;;;38.39;33.05;100711.44;20961673;28;20049;-74
2023/08/25 10:09:00;;;;;;;11.15;5.00;;;;;;;38.54;32.23;100701.59;20954633;28;20145;-74
2023/08/25 10:19:24;;;;;;;11.40;6.18;;;;;;;38.47;33.59;100699.59;20949293;28;20158;-74
2023/08/25 10:29:48;;;;;;;8.98;6.28;;;;;;;38.63;34.74;100699.78;20941856;28;20045;-74
2023/08/25 10:40:12;;;;;;;11.18;7.45;;;;;;;38.26;33.80;100699.94;20969971;28;20114;-74
2023/08/25 10:50:40;;;;;;;13.18;6.80;;;;;;;37.75;33.83;100695.81;20941568;28;20562;-73
2023/08/25 11:01:03;;;;;;;11.02;6.82;;;;;;;37.59;33.99;100683.72;20964412;28;20057;-74
2023/08/25 11:11:29;;;;;;;10.38;7.50;;;;;;;37.59;33.75;100695.63;20944120;28;20072;-72
2023/08/25 11:21:58;;;;;;;9.27;7.00;;;;;;;37.54;33.94;100675.91;20949350;28;20044;-72
2023/08/25 11:32:25;;;;;;;9.90;7.50;;;;;;;37.36;34.35;100655.66;20989709;28;20131;-72
2023/08/25 11:42:48;;;;;;;13.63;8.35;;;;;;;37.75;34.94;100657.22;20996929;28;20061;-73
2023/08/25 11:53:13;;;;;;;10.07;8.25;;;;;;;37.74;35.49;100671.19;20947547;28;20052;-73
2023/08/25 12:03:36;;;;;;;10.52;8.15;;;;;;;37.64;36.19;100667.59;20968045;28;20149;-72
2023/08/25 12:14:00;;;;;;;13.40;8.82;;;;;;;37.57;36.54;100663.69;20952121;28;20060;-72
2023/08/25 12:24:22;;;;;;;15.23;9.63;;;;;;;37.30;35.58;100672.78;20992044;28;20129;-72
2023/08/25 12:34:46;;;;;;;13.48;8.73;;;;;;;37.07;35.65;100673.13;20946331;28;20056;-72
2023/08/25 12:45:11;;;;;;;13.00;8.25;;;;;;;36.64;36.70;100673.63;20957603;28;20102;-72
2023/08/25 12:55:35;;;;;;;13.80;8.18;;;;;;;36.24;37.92;100687.47;20929887;28;20051;-72
2023/08/25 13:05:59;;;;;;;11.63;7.65;;;;;;;36.10;38.18;100687.88;20941532;28;20051;-72
2023/08/25 13:16:24;;;;;;;10.93;7.45;;;;;;;35.73;38.31;100686.75;20959575;28;20969;-72
2023/08/25 13:26:50;;;;;;;10.05;5.10;;;;;;;35.39;38.22;100670.53;20960988;28;20064;-72
2023/08/25 13:37:14;;;;;;;11.85;7.00;;;;;;;35.28;38.67;100676.13;20989217;28;20059;-72
2023/08/25 13:47:36;;;;;;;12.23;7.32;;;;;;;35.13;39.66;100669.19;20953609;28;20102;-72
2023/08/25 13:58:01;;;;;;;12.68;7.65;;;;;;;35.09;41.36;100670.50;20958132;28;20048;-71
2023/08/25 14:08:24;;;;;;;9.63;6.60;;;;;;;35.01;41.12;100662.94;20910604;28;20052;-72
2023/08/25 14:18:49;;;;;;;12.25;7.35;;;;;;;35.29;40.88;100655.91;20943683;28;20053;-71
2023/08/25 14:29:12;;;;;;;11.02;6.40;;;;;;;35.00;40.90;100639.22;20892534;28;20092;-72
2023/08/25 14:39:37;;;;;;;13.13;7.82;;;;;;;34.58;42.66;100653.94;20839313;28;20041;-74
2023/08/25 14:50:00;;;;;;;10.02;6.97;;;;;;;34.11;43.34;100657.97;20868221;28;20082;-74
2023/08/25 15:00:24;;;;;;;11.77;8.13;;;;;;;33.68;45.26;100644.19;20856956;28;20044;-72
2023/08/25 15:10:46;;;;;;;12.23;6.85;;;;;;;33.31;45.85;100646.34;20880984;28;20053;-72
2023/08/25 15:21:10;;;;;;;11.60;6.95;;;;;;;32.93;47.80;100632.97;20865316;28;20056;-72
2023/08/25 15:31:33;;;;;;;8.57;6.68;;;;;;;32.50;55.59;100630.84;20942377;28;20044;-71
2023/08/25 15:41:59;;;;;;;11.43;7.38;;;;;;;31.01;73.45;100628.34;20959663;28;20064;-70
2023/08/25 15:52:21;;;;;;;11.57;8.23;;;;;;;30.76;80.76;100626.50;20980216;28;20052;-70
2023/08/25 16:02:45;;;;;;;13.07;7.70;;;;;;;30.69;85.48;100637.94;20942254;28;20051;-70
2023/08/25 16:13:08;;;;;;;10.75;7.38;;;;;;;30.58;84.70;100643.25;20953072;28;20033;-70
2023/08/25 16:23:35;;;;;;;12.18;7.95;;;;;;;30.55;88.28;100640.72;20962660;28;20064;-70
2023/08/25 16:33:58;;;;;;;11.88;8.82;;;;;;;30.20;95.59;100635.81;20952850;28;20127;-70
2023/08/25 16:44:22;;;;;;;13.50;8.90;;;;;;;29.74;100.00;100640.72;20922930;28;20639;-70
2023/08/25 16:54:44;;;;;;;15.40;8.93;;;;;;;29.61;100.00;100650.66;20948736;28;20102;-70
2023/08/25 17:05:11;;;;;;;12.43;9.25;;;;;;;29.45;100.00;100658.06;20928511;28;20628;-70
2023/08/25 17:15:36;;;;;;;13.50;10.77;;;;;;;29.27;100.00;100660.09;20938612;28;20041;-70
2023/08/25 17:26:00;;;;;;;12.90;9.35;;;;;;;29.17;100.00;100665.25;20972157;28;20513;-70
2023/08/25 17:36:23;;;;;;;15.48;9.93;;;;;;;29.17;100.00;100664.38;20994383;28;20131;-71
2023/08/25 17:46:46;;;;;;;13.48;9.80;;;;;;;29.05;100.00;100668.72;20962250;28;20045;-70
2023/08/25 17:57:11;;;;;;;16.50;10.23;;;;;;;28.87;100.00;100675.31;20996841;28;20515;-71
2023/08/25 18:07:35;;;;;;;14.93;9.52;;;;;;;28.52;100.00;100680.13;20954619;28;20076;-71
2023/08/25 18:17:57;;;;;;;13.15;9.45;;;;;;;28.27;100.00;100694.31;20936527;28;20114;-71
2023/08/25 18:28:22;;;;;;;14.98;10.65;;;;;;;28.14;100.00;100693.28;20959191;28;20045;-71
2023/08/25 18:38:44;;;;;;;14.45;10.10;;;;;;;28.14;100.00;100690.56;20964212;28;20094;-70
2023/08/25 18:49:09;;;;;;;13.38;9.57;;;;;;;27.98;100.00;100697.78;20947271;28;20417;-70
2023/08/25 18:59:31;;;;;;;13.80;9.43;;;;;;;27.82;100.00;100691.50;20964866;28;20041;-71
2023/08/25 19:09:55;;;;;;;16.27;9.27;;;;;;;27.57;100.00;100703.72;20973047;28;20060;-71
2023/08/25 19:20:19;;;;;;;14.38;9.40;;;;;;;27.35;100.00;100711.28;20968868;28;20048;-71
2023/08/25 19:30:46;;;;;;;14.30;10.02;;;;;;;27.42;100.00;100710.00;20808226;28;20186;-71
2023/08/25 19:41:09;;;;;;;13.80;10.77;;;;;;;27.35;100.00;100695.00;20809179;28;20102;-71
2023/08/25 19:51:33;;;;;;;14.90;10.38;;;;;;;27.25;100.00;100701.88;20816793;28;20111;-71
2023/08/25 20:01:55;;;;;;;13.90;10.90;;;;;;;27.21;100.00;100690.34;20802847;28;20142;-70
2023/08/25 20:12:19;;;;;;;13.10;10.40;;;;;;;27.06;100.00;100690.28;20805914;28;20423;-71
2023/08/25 20:22:41;;;;;;;12.32;10.00;;;;;;;27.07;100.00;100687.50;20833792;28;20049;-71
2023/08/25 20:33:06;;;;;;;17.48;10.55;;;;;;;26.88;100.00;100682.16;20963990;28;20396;-71
2023/08/25 20:43:29;;;;;;;13.68;11.25;;;;;;;26.75;100.00;100680.16;20962603;28;20044;-71
2023/08/25 20:53:55;;;;;;;18.92;11.98;;;;;;;26.48;100.00;100677.06;20963478;28;20121;-71
2023/08/25 21:04:18;;;;;;;13.35;10.95;;;;;;;26.43;100.00;100684.56;20933117;28;20053;-71
2023/08/25 21:14:43;;;;;;;13.18;10.98;;;;;;;26.51;100.00;100663.38;20964339;28;20056;-72
2023/08/25 21:25:08;;;;;;;16.27;11.52;;;;;;;26.33;100.00;100651.63;20965645;28;20055;-72
2023/08/25 21:35:32;;;;;;;16.38;10.95;;;;;;;26.16;100.00;100647.06;20943289;28;20044;-71
2023/08/25 21:45:55;;;;;;;13.32;10.85;;;;;;;26.04;100.00;100633.28;20954340;28;20051;-71
2023/08/25 21:56:20;;;;;;;15.32;10.77;;;;;;;25.52;100.00;100633.13;20909917;28;20727;-71
2023/08/25 22:06:42;;;;;;;15.77;10.65;;;;;;;25.56;100.00;100615.78;20950567;28;20052;-70
2023/08/25 22:17:06;;;;;;;12.40;10.18;;;;;;;25.40;100.00;100614.78;20952135;28;20107;-71
2023/08/25 22:27:29;;;;;;;13.75;11.85;;;;;;;25.47;100.00;100612.66;20970230;28;20794;-70
2023/08/25 22:37:53;;;;;;;16.83;11.07;;;;;;;25.45;100.00;100598.34;20952444;28;20068;-71
2023/08/25 22:48:17;;;;;;;14.93;10.68;;;;;;;25.12;100.00;100593.59;20938359;28;20060;-71
2023/08/25 22:58:41;;;;;;;13.98;10.50;;;;;;;25.09;100.00;100587.44;20955365;28;20139;-71
2023/08/25 23:09:04;;;;;;;15.80;10.48;;;;;;;25.00;100.00;100584.25;20946530;28;20447;-71
2023/08/25 23:19:28;;;;;;;12.70;9.65;;;;;;;24.78;100.00;100586.13;20985023;28;20105;-71
2023/08/25 23:29:51;;;;;;;13.13;9.73;;;;;;;24.75;100.00;100577.28;20970919;28;20109;-71
2023/08/25 23:40:15;;;;;;;13.73;10.07;;;;;;;24.69;100.00;100569.47;20985529;28;20047;-71
2023/08/25 23:50:37;;;;;;;10.27;8.38;;;;;;;24.36;100.00;100561.06;20983935;28;20125;-71
